sensor_id;sensor_type;location;lat;lon;timestamp;pressure;altitude;pressure_sealevel;temperature;humidity
56006;BME280;41888;44.696;10.522;2023-09-07T00:00:59;100911.47;;;18.55;100.00
56006;BME280;41888;44.696;10.522;2023-09-07T00:03:26;100911.91;;;18.52;100.00
56006;BME280;41888;44.696;10.522;2023-09-07T00:05:52;100910.53;;;18.50;100.00
56006;BME280;41888;44.696;10.522;2023-09-07T00:08:19;100902.38;;;18.45;100.00
56006;BME280;41888;44.696;10.522;2023-09-07T00:10:45;100908.06;;;18.32;100.00
56006;BME280;41888;44.696;10.522;2023-09-07T00:13:11;100903.88;;;18.24;100.00
56006;BME280;41888;44.696;10.522;2023-09-07T00:15:38;100903.31;;;18.22;100.00
56006;BME280;41888;44.696;10.522;2023-09-07T00:18:05;100893.03;;;18.19;100.00
56006;BME280;41888;44.696;10.522;2023-09-07T00:20:31;100900.59;;;18.05;100.00
56006;BME280;41888;44.696;10.522;2023-09-07T00:22:59;100905.72;;;17.90;100.00
56006;BME280;41888;44.696;10.522;2023-09-07T00:25:26;100893.91;;;17.91;100.00
56006;BME280;41888;44.696;10.522;2023-09-07T00:27:53;100892.13;;;17.97;100.00
56006;BME280;41888;44.696;10.522;2023-09-07T00:30:19;100901.47;;;17.94;100.00
56006;BME280;41888;44.696;10.522;2023-09-07T00:32:45;100901.00;;;17.97;100.00
56006;BME280;41888;44.696;10.522;2023-09-07T00:35:11;100904.03;;;18.01;100.00
56006;BME280;41888;44.696;10.522;2023-09-07T00:37:38;100897.31;;;18.03;100.00
56006;BME280;41888;44.696;10.522;2023-09-07T00:40:05;100902.72;;;18.03;100.00
56006;BME280;41888;44.696;10.522;2023-09-07T00:42:35;100902.63;;;17.98;100.00
56006;BME280;41888;44.696;10.522;2023-09-07T00:45:01;100899.31;;;18.08;100.00
56006;BME280;41888;44.696;10.522;2023-09-07T00:47:28;100902.25;;;18.06;100.00
56006;BME280;41888;44.696;10.522;2023-09-07T00:49:55;100908.78;;;18.10;100.00
56006;BME280;41888;44.696;10.522;2023-09-07T00:52:21;100900.47;;;18.12;100.00
56006;BME280;41888;44.696;10.522;2023-09-07T00:54:47;100896.69;;;17.96;100.00
56006;BME280;41888;44.696;10.522;2023-09-07T00:57:13;100896.19;;;17.99;100.00
56006;BME280;41888;44.696;10.522;2023-09-07T00:59:39;100899.91;;;17.98;100.00
56006;BME280;41888;44.696;10.522;2023-09-07T01:02:06;100892.56;;;17.94;100.00
56006;BME280;41888;44.696;10.522;2023-09-07T01:04:32;100890.03;;;17.87;100.00
56006;BME280;41888;44.696;10.522;2023-09-07T01:07:47;100885.03;;;17.79;100.00
56006;BME280;41888;44.696;10.522;2023-09-07T01:10:12;100897.44;;;17.80;100.00
56006;BME280;41888;44.696;10.522;2023-09-07T01:12:40;100890.44;;;17.79;100.00
56006;BME280;41888;44.696;10.522;2023-09-07T01:15:07;100890.53;;;17.84;100.00
56006;BME280;41888;44.696;10.522;2023-09-07T01:17:34;100895.75;;;17.91;100.00
56006;BME280;41888;44.696;10.522;2023-09-07T01:20:04;100887.34;;;17.87;100.00
56006;BME280;41888;44.696;10.522;2023-09-07T01:22:37;100887.50;;;17.81;100.00
56006;BME280;41888;44.696;10.522;2023-09-07T01:25:06;100891.63;;;17.71;100.00
56006;BME280;41888;44.696;10.522;2023-09-07T01:27:34;100893.91;;;17.91;100.00
56006;BME280;41888;44.696;10.522;2023-09-07T01:30:00;100892.31;;;17.79;100.00
56006;BME280;41888;44.696;10.522;2023-09-07T01:32:26;100892.34;;;17.67;100.00
56006;BME280;41888;44.696;10.522;2023-09-07T01:34:56;100899.25;;;17.63;100.00
56006;BME280;41888;44.696;10.522;2023-09-07T01:37:23;100906.69;;;17.33;100.00
56006;BME280;41888;44.696;10.522;2023-09-07T01:39:49;100920.53;;;17.01;100.00
56006;BME280;41888;44.696;10.522;2023-09-07T01:42:16;100924.97;;;16.84;100.00
56006;BME280;41888;44.696;10.522;2023-09-07T01:44:42;100920.31;;;16.68;100.00
56006;BME280;41888;44.696;10.522;2023-09-07T01:47:09;100923.69;;;16.63;100.00
56006;BME280;41888;44.696;10.522;2023-09-07T01:49:35;100921.28;;;16.55;100.00
56006;BME280;41888;44.696;10.522;2023-09-07T01:52:02;100923.97;;;16.55;100.00
56006;BME280;41888;44.696;10.522;2023-09-07T01:54:28;100927.50;;;16.56;100.00
56006;BME280;41888;44.696;10.522;2023-09-07T01:56:55;100930.19;;;16.56;100.00
56006;BME280;41888;44.696;10.522;2023-09-07T01:59:21;100934.34;;;16.70;100.00
56006;BME280;41888;44.696;10.522;2023-09-07T02:01:47;100926.00;;;16.71;100.00
56006;BME280;41888;44.696;10.522;2023-09-07T02:04:13;100929.06;;;16.63;100.00
56006;BME280;41888;44.696;10.522;2023-09-07T02:06:39;100923.22;;;16.78;100.00
56006;BME280;41888;44.696;10.522;2023-09-07T02:09:05;100920.44;;;16.96;100.00
56006;BME280;41888;44.696;10.522;2023-09-07T02:11:31;100917.38;;;17.04;100.00
56006;BME280;41888;44.696;10.522;2023-09-07T02:13:58;100924.00;;;17.13;100.00
56006;BME280;41888;44.696;10.522;2023-09-07T02:16:24;100910.78;;;17.35;100.00
56006;BME280;41888;44.696;10.522;2023-09-07T02:18:50;100919.66;;;17.36;100.00
56006;BME280;41888;44.696;10.522;2023-09-07T02:21:26;100916.56;;;16.92;100.00
56006;BME280;41888;44.696;10.522;2023-09-07T02:23:52;100916.81;;;16.79;100.00
56006;BME280;41888;44.696;10.522;2023-09-07T02:26:18;100914.09;;;16.67;100.00
56006;BME280;41888;44.696;10.522;2023-09-07T02:28:44;100906.16;;;16.96;100.00
56006;BME280;41888;44.696;10.522;2023-09-07T02:31:11;100906.28;;;17.12;100.00
56006;BME280;41888;44.696;10.522;2023-09-07T02:33:37;100916.06;;;17.18;100.00
56006;BME280;41888;44.696;10.522;2023-09-07T02:36:03;100908.69;;;17.14;100.00
56006;BME280;41888;44.696;10.522;2023-09-07T02:38:30;100926.50;;;16.92;100.00
56006;BME280;41888;44.696;10.522;2023-09-07T02:40:56;100917.00;;;16.66;100.00
56006;BME280;41888;44.696;10.522;2023-09-07T02:43:23;100921.34;;;16.67;100.00
56006;BME280;41888;44.696;10.522;2023-09-07T02:45:50;100926.84;;;16.72;100.00
56006;BME280;41888;44.696;10.522;2023-09-07T02:48:16;100917.50;;;16.63;100.00
56006;BME280;41888;44.696;10.522;2023-09-07T02:50:42;100908.97;;;16.24;100.00
56006;BME280;41888;44.696;10.522;2023-09-07T02:53:11;100912.31;;;16.08;100.00
56006;BME280;41888;44.696;10.522;2023-09-07T02:55:39;100910.59;;;16.02;100.00
56006;BME280;41888;44.696;10.522;2023-09-07T02:58:06;100909.63;;;16.08;100.00
56006;BME280;41888;44.696;10.522;2023-09-07T03:00:32;100907.09;;;16.13;100.00
56006;BME280;41888;44.696;10.522;2023-09-07T03:02:58;100908.63;;;16.21;100.00
56006;BME280;41888;44.696;10.522;2023-09-07T03:05:27;100907.84;;;16.32;100.00
56006;BME280;41888;44.696;10.522;2023-09-07T03:07:56;100909.13;;;16.29;100.00
56006;BME280;41888;44.696;10.522;2023-09-07T03:10:22;100907.50;;;16.28;100.00
56006;BME280;41888;44.696;10.522;2023-09-07T03:12:49;100908.81;;;15.96;100.00
56006;BME280;41888;44.696;10.522;2023-09-07T03:15:16;100912.69;;;15.82;100.00
56006;BME280;41888;44.696;10.522;2023-09-07T03:17:42;100908.28;;;15.87;100.00
56006;BME280;41888;44.696;10.522;2023-09-07T03:20:09;100912.31;;;15.96;100.00
56006;BME280;41888;44.696;10.522;2023-09-07T03:22:43;100910.41;;;15.97;100.00
56006;BME280;41888;44.696;10.522;2023-09-07T03:25:10;100913.09;;;15.97;100.00
56006;BME280;41888;44.696;10.522;2023-09-07T03:27:39;100913.66;;;15.87;100.00
56006;BME280;41888;44.696;10.522;2023-09-07T03:30:06;100917.28;;;15.93;100.00
56006;BME280;41888;44.696;10.522;2023-09-07T03:32:34;100913.09;;;15.97;100.00
56006;BME280;41888;44.696;10.522;2023-09-07T03:35:00;100918.38;;;16.03;100.00
56006;BME280;41888;44.696;10.522;2023-09-07T03:37:27;100918.22;;;16.17;100.00
56006;BME280;41888;44.696;10.522;2023-09-07T03:39:55;100920.88;;;16.17;100.00
56006;BME280;41888;44.696;10.522;2023-09-07T03:42:21;100936.88;;;16.23;100.00
56006;BME280;41888;44.696;10.522;2023-09-07T03:44:47;100912.72;;;16.23;100.00
56006;BME280;41888;44.696;10.522;2023-09-07T03:47:14;100916.13;;;16.30;100.00
56006;BME280;41888;44.696;10.522;2023-09-07T03:49:41;100914.38;;;16.36;100.00
56006;BME280;41888;44.696;10.522;2023-09-07T03:52:07;100918.13;;;16.46;100.00
56006;BME280;41888;44.696;10.522;2023-09-07T03:54:33;100919.31;;;16.51;100.00
56006;BME280;41888;44.696;10.522;2023-09-07T03:57:00;100916.75;;;16.56;100.00
56006;BME280;41888;44.696;10.522;2023-09-07T03:59:28;100923.19;;;16.55;100.00
56006;BME280;41888;44.696;10.522;2023-09-07T04:01:54;100921.88;;;16.57;100.00
56006;BME280;41888;44.696;10.522;2023-09-07T04:04:20;100916.63;;;16.51;100.00
56006;BME280;41888;44.696;10.522;2023-09-07T04:06:47;100919.84;;;16.59;100.00
56006;BME280;41888;44.696;10.522;2023-09-07T04:09:16;100924.81;;;16.44;100.00
56006;BME280;41888;44.696;10.522;2023-09-07T04:11:42;100927.50;;;16.56;100.00
56006;BME280;41888;44.696;10.522;2023-09-07T04:14:09;100922.94;;;16.56;100.00
56006;BME280;41888;44.696;10.522;2023-09-07T04:16:35;100919.91;;;16.53;100.00
56006;BME280;41888;44.696;10.522;2023-09-07T04:19:01;100925.78;;;16.61;100.00
56006;BME280;41888;44.696;10.522;2023-09-07T04:21:27;100929.75;;;16.59;100.00
56006;BME280;41888;44.696;10.522;2023-09-07T04:23:53;100931.56;;;16.46;100.00
56006;BME280;41888;44.696;10.522;2023-09-07T04:26:20;100925.75;;;16.50;100.00
56006;BME280;41888;44.696;10.522;2023-09-07T04:28:46;100923.50;;;16.46;100.00
56006;BME280;41888;44.696;10.522;2023-09-07T04:31:12;100924.84;;;16.67;100.00
56006;BME280;41888;44.696;10.522;2023-09-07T04:33:38;100917.56;;;16.56;100.00
56006;BME280;41888;44.696;10.522;2023-09-07T04:36:11;100919.34;;;16.62;100.00
56006;BME280;41888;44.696;10.522;2023-09-07T04:38:38;100922.72;;;16.58;100.00
56006;BME280;41888;44.696;10.522;2023-09-07T04:43:33;100917.44;;;16.51;100.00
56006;BME280;41888;44.696;10.522;2023-09-07T04:46:00;100931.44;;;16.41;100.00
56006;BME280;41888;44.696;10.522;2023-09-07T04:48:26;100928.16;;;16.28;100.00
56006;BME280;41888;44.696;10.522;2023-09-07T04:51:02;100937.03;;;16.40;100.00
56006;BME280;41888;44.696;10.522;2023-09-07T04:53:30;100929.34;;;16.43;100.00
56006;BME280;41888;44.696;10.522;2023-09-07T04:55:57;100939.28;;;16.43;100.00
56006;BME280;41888;44.696;10.522;2023-09-07T04:58:24;100944.09;;;16.53;100.00
56006;BME280;41888;44.696;10.522;2023-09-07T05:00:50;100943.25;;;16.52;100.00
56006;BME280;41888;44.696;10.522;2023-09-07T05:03:16;100943.03;;;16.54;100.00
56006;BME280;41888;44.696;10.522;2023-09-07T05:05:43;100938.09;;;16.51;100.00
56006;BME280;41888;44.696;10.522;2023-09-07T05:08:12;100953.25;;;16.75;100.00
56006;BME280;41888;44.696;10.522;2023-09-07T05:10:38;100949.28;;;17.12;100.00
56006;BME280;41888;44.696;10.522;2023-09-07T05:13:05;100940.63;;;17.34;100.00
56006;BME280;41888;44.696;10.522;2023-09-07T05:15:31;100939.00;;;17.72;100.00
56006;BME280;41888;44.696;10.522;2023-09-07T05:17:57;100944.81;;;18.38;100.00
56006;BME280;41888;44.696;10.522;2023-09-07T05:20:23;100944.72;;;18.99;100.00
56006;BME280;41888;44.696;10.522;2023-09-07T05:22:49;100951.50;;;19.40;100.00
56006;BME280;41888;44.696;10.522;2023-09-07T05:25:16;100955.28;;;19.83;100.00
56006;BME280;41888;44.696;10.522;2023-09-07T05:27:43;100949.84;;;20.05;100.00
56006;BME280;41888;44.696;10.522;2023-09-07T05:30:10;100957.47;;;20.61;100.00
56006;BME280;41888;44.696;10.522;2023-09-07T05:32:36;100953.31;;;20.86;99.44
56006;BME280;41888;44.696;10.522;2023-09-07T05:35:02;100957.53;;;21.56;95.73
56006;BME280;41888;44.696;10.522;2023-09-07T05:37:29;100965.13;;;21.64;94.04
56006;BME280;41888;44.696;10.522;2023-09-07T05:39:55;100960.19;;;22.18;90.80
56006;BME280;41888;44.696;10.522;2023-09-07T05:42:21;100963.47;;;22.25;89.37
56006;BME280;41888;44.696;10.522;2023-09-07T05:44:47;100966.94;;;23.27;84.11
56006;BME280;41888;44.696;10.522;2023-09-07T05:47:13;100971.22;;;23.58;81.82
56006;BME280;41888;44.696;10.522;2023-09-07T05:49:39;100975.84;;;23.58;79.91
56006;BME280;41888;44.696;10.522;2023-09-07T05:52:06;100970.00;;;23.89;80.22
56006;BME280;41888;44.696;10.522;2023-09-07T05:54:33;100971.97;;;23.74;80.16
56006;BME280;41888;44.696;10.522;2023-09-07T05:56:59;100975.50;;;23.69;80.22
56006;BME280;41888;44.696;10.522;2023-09-07T05:59:25;100964.34;;;24.30;75.92
56006;BME280;41888;44.696;10.522;2023-09-07T06:01:51;100976.56;;;24.66;73.30
56006;BME280;41888;44.696;10.522;2023-09-07T06:04:17;100978.16;;;25.30;70.93
56006;BME280;41888;44.696;10.522;2023-09-07T06:06:44;100963.03;;;25.67;69.02
56006;BME280;41888;44.696;10.522;2023-09-07T06:09:10;100982.22;;;25.80;69.01
56006;BME280;41888;44.696;10.522;2023-09-07T06:11:36;100984.06;;;26.03;66.90
56006;BME280;41888;44.696;10.522;2023-09-07T06:14:03;100977.53;;;26.93;63.44
56006;BME280;41888;44.696;10.522;2023-09-07T06:16:29;100973.94;;;27.39;60.89
56006;BME280;41888;44.696;10.522;2023-09-07T06:18:55;100979.78;;;27.87;58.98
56006;BME280;41888;44.696;10.522;2023-09-07T06:21:21;100981.28;;;28.06;58.11
56006;BME280;41888;44.696;10.522;2023-09-07T06:23:47;100985.00;;;28.10;57.36
56006;BME280;41888;44.696;10.522;2023-09-07T06:26:13;100989.25;;;29.28;54.16
56006;BME280;41888;44.696;10.522;2023-09-07T06:28:40;100988.91;;;29.60;51.14
56006;BME280;41888;44.696;10.522;2023-09-07T06:31:06;100990.09;;;29.37;51.88
56006;BME280;41888;44.696;10.522;2023-09-07T06:33:32;100992.56;;;29.56;51.55
56006;BME280;41888;44.696;10.522;2023-09-07T06:36:00;100995.41;;;29.03;51.72
56006;BME280;41888;44.696;10.522;2023-09-07T06:38:28;100995.16;;;30.52;47.82
56006;BME280;41888;44.696;10.522;2023-09-07T06:40:54;101002.41;;;30.05;49.38
56006;BME280;41888;44.696;10.522;2023-09-07T06:43:20;100999.69;;;30.39;47.65
56006;BME280;41888;44.696;10.522;2023-09-07T06:45:46;101007.41;;;30.20;48.52
56006;BME280;41888;44.696;10.522;2023-09-07T06:48:13;101005.16;;;30.74;46.25
56006;BME280;41888;44.696;10.522;2023-09-07T06:50:39;101014.13;;;31.17;45.73
56006;BME280;41888;44.696;10.522;2023-09-07T06:53:05;101013.16;;;32.18;44.08
56006;BME280;41888;44.696;10.522;2023-09-07T06:55:31;101016.84;;;32.22;43.39
56006;BME280;41888;44.696;10.522;2023-09-07T06:57:57;101007.44;;;31.94;43.72
56006;BME280;41888;44.696;10.522;2023-09-07T07:00:26;101012.91;;;31.82;44.39
56006;BME280;41888;44.696;10.522;2023-09-07T07:02:53;101012.06;;;30.88;44.35
56006;BME280;41888;44.696;10.522;2023-09-07T07:05:19;101019.13;;;29.86;47.87
56006;BME280;41888;44.696;10.522;2023-09-07T07:07:46;101021.72;;;29.34;49.68
56006;BME280;41888;44.696;10.522;2023-09-07T07:10:13;101011.56;;;28.10;52.08
56006;BME280;41888;44.696;10.522;2023-09-07T07:12:39;101010.16;;;27.17;56.28
56006;BME280;41888;44.696;10.522;2023-09-07T07:15:06;101015.47;;;27.08;57.01
56006;BME280;41888;44.696;10.522;2023-09-07T07:17:33;101009.09;;;27.13;58.16
56006;BME280;41888;44.696;10.522;2023-09-07T07:19:59;101013.03;;;27.53;56.19
56006;BME280;41888;44.696;10.522;2023-09-07T07:22:25;101007.34;;;27.49;55.37
56006;BME280;41888;44.696;10.522;2023-09-07T07:24:52;101014.09;;;27.11;57.23
56006;BME280;41888;44.696;10.522;2023-09-07T07:27:18;101012.34;;;26.82;56.65
56006;BME280;41888;44.696;10.522;2023-09-07T07:29:44;101010.66;;;26.54;58.90
56006;BME280;41888;44.696;10.522;2023-09-07T07:32:11;101016.75;;;26.46;60.09
56006;BME280;41888;44.696;10.522;2023-09-07T07:34:37;101013.94;;;26.70;58.85
56006;BME280;41888;44.696;10.522;2023-09-07T07:37:03;101019.94;;;26.34;60.85
56006;BME280;41888;44.696;10.522;2023-09-07T07:39:29;101013.13;;;26.51;59.49
56006;BME280;41888;44.696;10.522;2023-09-07T07:41:56;101008.63;;;26.60;60.22
56006;BME280;41888;44.696;10.522;2023-09-07T07:44:22;101010.34;;;26.56;60.01
56006;BME280;41888;44.696;10.522;2023-09-07T07:46:48;101013.84;;;26.19;63.09
56006;BME280;41888;44.696;10.522;2023-09-07T07:49:14;101005.81;;;26.08;65.56
56006;BME280;41888;44.696;10.522;2023-09-07T07:51:41;101018.50;;;25.99;65.86
56006;BME280;41888;44.696;10.522;2023-09-07T07:54:07;101005.59;;;26.05;68.39
56006;BME280;41888;44.696;10.522;2023-09-07T07:56:33;101008.28;;;25.86;68.91
56006;BME280;41888;44.696;10.522;2023-09-07T07:58:59;101011.75;;;25.92;69.17
56006;BME280;41888;44.696;10.522;2023-09-07T08:01:25;101012.75;;;26.20;68.12
56006;BME280;41888;44.696;10.522;2023-09-07T08:03:52;101000.84;;;26.34;67.94
56006;BME280;41888;44.696;10.522;2023-09-07T08:06:19;101001.50;;;26.45;67.86
56006;BME280;41888;44.696;10.522;2023-09-07T08:08:45;101003.63;;;26.29;69.02
56006;BME280;41888;44.696;10.522;2023-09-07T08:11:12;101013.94;;;25.95;69.66
56006;BME280;41888;44.696;10.522;2023-09-07T08:13:38;101004.13;;;24.94;76.22
56006;BME280;41888;44.696;10.522;2023-09-07T08:16:05;101005.91;;;24.74;77.65
56006;BME280;41888;44.696;10.522;2023-09-07T08:18:33;101003.53;;;24.97;78.15
56006;BME280;41888;44.696;10.522;2023-09-07T08:21:00;101004.78;;;25.09;77.11
56006;BME280;41888;44.696;10.522;2023-09-07T08:23:26;101003.19;;;25.32;75.95
56006;BME280;41888;44.696;10.522;2023-09-07T08:25:53;101002.94;;;25.57;75.04
56006;BME280;41888;44.696;10.522;2023-09-07T08:28:19;101003.25;;;25.51;74.70
56006;BME280;41888;44.696;10.522;2023-09-07T08:30:49;101001.97;;;25.43;74.70
56006;BME280;41888;44.696;10.522;2023-09-07T08:33:17;100999.00;;;25.16;78.40
56006;BME280;41888;44.696;10.522;2023-09-07T08:35:43;101005.94;;;25.32;77.30
56006;BME280;41888;44.696;10.522;2023-09-07T08:38:13;100994.72;;;25.10;78.01
56006;BME280;41888;44.696;10.522;2023-09-07T08:40:39;100992.63;;;25.49;77.04
56006;BME280;41888;44.696;10.522;2023-09-07T08:43:08;100998.09;;;25.26;79.30
56006;BME280;41888;44.696;10.522;2023-09-07T08:45:41;101002.72;;;25.25;80.11
56006;BME280;41888;44.696;10.522;2023-09-07T08:48:10;101000.75;;;25.02;81.21
56006;BME280;41888;44.696;10.522;2023-09-07T08:50:38;101001.19;;;25.43;79.25
56006;BME280;41888;44.696;10.522;2023-09-07T08:53:06;100997.44;;;25.34;80.42
56006;BME280;41888;44.696;10.522;2023-09-07T08:55:34;100997.00;;;25.50;79.42
56006;BME280;41888;44.696;10.522;2023-09-07T08:58:00;101000.28;;;25.95;78.44
56006;BME280;41888;44.696;10.522;2023-09-07T09:00:26;101008.25;;;26.10;76.82
56006;BME280;41888;44.696;10.522;2023-09-07T09:02:53;100997.50;;;26.00;75.78
56006;BME280;41888;44.696;10.522;2023-09-07T09:05:23;100998.81;;;26.02;76.89
56006;BME280;41888;44.696;10.522;2023-09-07T09:08:01;100999.94;;;26.20;72.62
56006;BME280;41888;44.696;10.522;2023-09-07T09:10:28;100997.53;;;26.37;72.08
56006;BME280;41888;44.696;10.522;2023-09-07T09:12:55;100990.16;;;26.70;69.62
56006;BME280;41888;44.696;10.522;2023-09-07T09:15:24;100991.50;;;27.05;68.06
56006;BME280;41888;44.696;10.522;2023-09-07T09:17:51;100993.91;;;27.53;66.25
56006;BME280;41888;44.696;10.522;2023-09-07T09:20:37;100989.22;;;27.40;66.08
56006;BME280;41888;44.696;10.522;2023-09-07T09:23:04;100992.44;;;27.14;66.53
56006;BME280;41888;44.696;10.522;2023-09-07T09:25:31;100996.78;;;27.15;66.73
56006;BME280;41888;44.696;10.522;2023-09-07T09:27:58;100987.09;;;27.37;65.69
56006;BME280;41888;44.696;10.522;2023-09-07T09:30:25;100995.72;;;26.98;66.37
56006;BME280;41888;44.696;10.522;2023-09-07T09:32:51;100986.06;;;27.05;64.88
56006;BME280;41888;44.696;10.522;2023-09-07T09:35:18;100984.50;;;26.99;64.80
56006;BME280;41888;44.696;10.522;2023-09-07T09:37:46;100984.94;;;26.74;66.02
56006;BME280;41888;44.696;10.522;2023-09-07T09:40:14;100987.50;;;26.84;67.20
56006;BME280;41888;44.696;10.522;2023-09-07T09:42:44;100984.34;;;27.37;66.89
56006;BME280;41888;44.696;10.522;2023-09-07T09:45:11;100977.56;;;27.89;62.71
56006;BME280;41888;44.696;10.522;2023-09-07T09:47:42;100984.06;;;27.79;63.07
56006;BME280;41888;44.696;10.522;2023-09-07T09:50:10;100982.88;;;28.21;60.93
56006;BME280;41888;44.696;10.522;2023-09-07T09:52:37;100975.28;;;28.04;60.76
56006;BME280;41888;44.696;10.522;2023-09-07T09:55:08;100977.00;;;27.64;61.66
56006;BME280;41888;44.696;10.522;2023-09-07T09:57:35;100973.66;;;27.81;59.79
56006;BME280;41888;44.696;10.522;2023-09-07T10:00:03;100976.00;;;28.10;58.01
56006;BME280;41888;44.696;10.522;2023-09-07T10:05:21;100978.00;;;27.68;59.31
56006;BME280;41888;44.696;10.522;2023-09-07T10:07:50;100965.84;;;27.34;60.09
56006;BME280;41888;44.696;10.522;2023-09-07T10:10:19;100972.69;;;27.04;60.19
56006;BME280;41888;44.696;10.522;2023-09-07T10:12:52;100960.75;;;26.81;60.84
56006;BME280;41888;44.696;10.522;2023-09-07T10:15:26;100960.66;;;27.46;59.86
56006;BME280;41888;44.696;10.522;2023-09-07T10:18:12;100948.84;;;27.23;61.91
56006;BME280;41888;44.696;10.522;2023-09-07T10:20:56;100959.75;;;27.37;60.46
56006;BME280;41888;44.696;10.522;2023-09-07T10:23:41;100949.63;;;27.78;57.88
56006;BME280;41888;44.696;10.522;2023-09-07T10:26:15;100948.22;;;27.26;60.16
56006;BME280;41888;44.696;10.522;2023-09-07T10:28:42;100939.50;;;27.79;59.04
56006;BME280;41888;44.696;10.522;2023-09-07T10:31:19;100937.13;;;27.99;56.79
56006;BME280;41888;44.696;10.522;2023-09-07T10:33:47;100942.41;;;28.32;55.69
56006;BME280;41888;44.696;10.522;2023-09-07T10:36:27;100941.75;;;27.63;57.47
56006;BME280;41888;44.696;10.522;2023-09-07T10:38:56;100936.56;;;27.34;59.77
56006;BME280;41888;44.696;10.522;2023-09-07T10:41:22;100948.66;;;27.33;60.49
56006;BME280;41888;44.696;10.522;2023-09-07T10:43:50;100940.13;;;27.21;59.51
56006;BME280;41888;44.696;10.522;2023-09-07T10:46:21;100930.59;;;27.73;58.28
56006;BME280;41888;44.696;10.522;2023-09-07T10:48:53;100932.66;;;28.39;54.92
56006;BME280;41888;44.696;10.522;2023-09-07T10:51:22;100928.84;;;28.27;55.72
56006;BME280;41888;44.696;10.522;2023-09-07T10:53:49;100925.09;;;28.67;55.63
56006;BME280;41888;44.696;10.522;2023-09-07T10:56:15;100920.97;;;28.78;53.51
56006;BME280;41888;44.696;10.522;2023-09-07T10:58:42;100923.84;;;28.06;54.57
56006;BME280;41888;44.696;10.522;2023-09-07T11:01:10;100927.69;;;27.56;56.14
56006;BME280;41888;44.696;10.522;2023-09-07T11:03:37;100917.03;;;27.41;57.72
56006;BME280;41888;44.696;10.522;2023-09-07T11:08:33;100916.88;;;27.51;58.02
56006;BME280;41888;44.696;10.522;2023-09-07T11:11:03;100912.69;;;27.67;57.20
56006;BME280;41888;44.696;10.522;2023-09-07T11:13:30;100904.28;;;27.99;55.95
56006;BME280;41888;44.696;10.522;2023-09-07T11:15:57;100910.28;;;28.24;53.68
56006;BME280;41888;44.696;10.522;2023-09-07T11:18:24;100903.66;;;28.16;52.69
56006;BME280;41888;44.696;10.522;2023-09-07T11:20:52;100909.09;;;28.83;51.54
56006;BME280;41888;44.696;10.522;2023-09-07T11:23:20;100900.63;;;29.02;51.66
56006;BME280;41888;44.696;10.522;2023-09-07T11:25:48;100901.44;;;29.42;50.78
56006;BME280;41888;44.696;10.522;2023-09-07T11:28:17;100888.66;;;28.36;53.71
56006;BME280;41888;44.696;10.522;2023-09-07T11:30:54;100889.28;;;28.33;52.21
56006;BME280;41888;44.696;10.522;2023-09-07T11:33:22;100891.31;;;27.69;54.11
56006;BME280;41888;44.696;10.522;2023-09-07T11:35:48;100874.84;;;28.19;53.77
56006;BME280;41888;44.696;10.522;2023-09-07T11:38:16;100880.28;;;28.85;52.84
56006;BME280;41888;44.696;10.522;2023-09-07T11:40:43;100867.53;;;28.81;52.92
56006;BME280;41888;44.696;10.522;2023-09-07T11:43:16;100868.34;;;28.59;52.75
56006;BME280;41888;44.696;10.522;2023-09-07T11:45:43;100882.72;;;27.76;53.94
56006;BME280;41888;44.696;10.522;2023-09-07T11:48:10;100866.34;;;27.48;54.64
56006;BME280;41888;44.696;10.522;2023-09-07T11:50:37;100865.41;;;27.39;56.11
56006;BME280;41888;44.696;10.522;2023-09-07T11:53:05;100859.41;;;28.00;55.22
56006;BME280;41888;44.696;10.522;2023-09-07T11:55:32;100870.44;;;28.62;52.10
56006;BME280;41888;44.696;10.522;2023-09-07T11:57:58;100862.13;;;29.07;49.85
56006;BME280;41888;44.696;10.522;2023-09-07T12:00:25;100861.41;;;28.84;50.89
56006;BME280;41888;44.696;10.522;2023-09-07T12:02:51;100868.41;;;27.79;50.87
56006;BME280;41888;44.696;10.522;2023-09-07T12:05:17;100863.47;;;28.47;50.20
56006;BME280;41888;44.696;10.522;2023-09-07T12:07:45;100855.03;;;27.77;52.35
56006;BME280;41888;44.696;10.522;2023-09-07T12:10:12;100854.25;;;27.99;54.98
56006;BME280;41888;44.696;10.522;2023-09-07T12:12:43;100853.69;;;28.10;52.15
56006;BME280;41888;44.696;10.522;2023-09-07T12:15:10;100849.44;;;28.18;50.95
56006;BME280;41888;44.696;10.522;2023-09-07T12:17:40;100851.25;;;28.53;50.91
56006;BME280;41888;44.696;10.522;2023-09-07T12:20:07;100848.72;;;28.35;50.29
56006;BME280;41888;44.696;10.522;2023-09-07T12:22:36;100848.22;;;28.55;51.23
56006;BME280;41888;44.696;10.522;2023-09-07T12:25:07;100840.13;;;28.50;51.07
56006;BME280;41888;44.696;10.522;2023-09-07T12:27:34;100842.16;;;29.06;50.12
56006;BME280;41888;44.696;10.522;2023-09-07T12:30:01;100835.97;;;28.30;52.74
56006;BME280;41888;44.696;10.522;2023-09-07T12:32:28;100837.19;;;29.17;50.95
56006;BME280;41888;44.696;10.522;2023-09-07T12:34:54;100828.38;;;29.37;49.60
56006;BME280;41888;44.696;10.522;2023-09-07T12:37:20;100825.88;;;29.01;50.92
56006;BME280;41888;44.696;10.522;2023-09-07T12:39:49;100824.66;;;29.33;51.21
56006;BME280;41888;44.696;10.522;2023-09-07T12:42:16;100821.13;;;29.84;48.46
56006;BME280;41888;44.696;10.522;2023-09-07T12:44:42;100827.69;;;29.23;50.50